createdAt,value
2018-09-30T00:01:08.261Z,5.70
2018-09-30T00:03:36.551Z,6.53
2018-09-30T00:06:04.896Z,5.67
2018-09-30T00:08:33.177Z,6.73
2018-09-30T00:11:05.262Z,6.30
2018-09-30T00:13:33.622Z,6.27
2018-09-30T00:16:01.952Z,6.10
2018-09-30T00:18:30.293Z,6.00
2018-09-30T00:20:58.579Z,6.47
2018-09-30T00:23:26.874Z,6.33
2018-09-30T00:26:59.752Z,6.03
2018-09-30T00:29:29.390Z,5.63
2018-09-30T00:31:58.378Z,5.50
2018-09-30T00:34:28.039Z,6.03
2018-09-30T00:36:57.535Z,6.10
2018-09-30T00:39:26.313Z,5.67
2018-09-30T00:41:54.757Z,6.33
2018-09-30T00:44:23.583Z,5.40
2018-09-30T00:46:52.673Z,5.80
2018-09-30T00:49:20.946Z,5.33
2018-09-30T00:51:49.309Z,5.60
2018-09-30T00:54:17.579Z,6.03
2018-09-30T00:56:45.897Z,5.50
2018-09-30T00:59:14.201Z,6.23
2018-09-30T01:01:42.603Z,5.27
2018-09-30T01:04:10.892Z,5.93
2018-09-30T01:06:39.270Z,5.30
2018-09-30T01:09:11.141Z,5.80
2018-09-30T01:11:39.653Z,4.90
2018-09-30T01:14:12.100Z,5.53
2018-09-30T01:16:40.371Z,5.73
2018-09-30T01:19:08.639Z,5.77
2018-09-30T01:21:36.967Z,5.83
2018-09-30T01:24:05.459Z,5.50
2018-09-30T01:26:33.733Z,5.83
2018-09-30T01:29:02.006Z,5.13
2018-09-30T01:31:30.271Z,5.90
2018-09-30T01:33:58.602Z,5.87
2018-09-30T01:36:26.924Z,5.57
2018-09-30T01:38:55.539Z,5.50
2018-09-30T01:41:24.170Z,5.20
2018-09-30T01:43:52.588Z,4.97
2018-09-30T01:46:20.911Z,5.30
2018-09-30T01:48:49.195Z,5.70
2018-09-30T01:51:17.502Z,4.37
2018-09-30T01:53:45.809Z,5.20
2018-09-30T01:56:14.064Z,4.60
2018-09-30T01:58:49.199Z,5.10
2018-09-30T02:01:17.512Z,5.20
2018-09-30T02:03:45.796Z,5.03
2018-09-30T02:06:14.078Z,4.70
2018-09-30T02:08:42.384Z,4.30
2018-09-30T02:11:10.697Z,5.10
2018-09-30T02:13:38.970Z,5.00
2018-09-30T02:16:07.428Z,4.73
2018-09-30T02:18:36.051Z,4.70
2018-09-30T02:21:11.088Z,4.90
2018-09-30T02:23:39.355Z,4.87
2018-09-30T02:26:07.652Z,4.57
2018-09-30T02:28:35.973Z,5.17
2018-09-30T02:31:04.282Z,5.13
2018-09-30T02:33:32.565Z,4.80
2018-09-30T02:36:00.838Z,4.77
2018-09-30T02:38:29.144Z,5.97
2018-09-30T02:40:57.421Z,5.53
2018-09-30T02:43:25.720Z,6.10
2018-09-30T02:45:54.185Z,4.70
2018-09-30T02:48:22.455Z,4.97
2018-09-30T02:50:50.780Z,4.43
2018-09-30T02:53:19.068Z,5.43
2018-09-30T02:55:47.401Z,5.27
2018-09-30T02:58:15.697Z,5.10
2018-09-30T03:00:44.254Z,5.33
2018-09-30T03:03:12.552Z,5.90
2018-09-30T03:05:40.977Z,5.97
2018-09-30T03:08:14.917Z,6.23
2018-09-30T03:10:43.221Z,5.80
2018-09-30T03:13:11.814Z,5.70
2018-09-30T03:15:40.140Z,5.97
2018-09-30T03:18:09.064Z,6.13
2018-09-30T03:20:37.377Z,6.23
2018-09-30T03:23:07.620Z,6.13
2018-09-30T03:25:36.100Z,7.10
2018-09-30T03:28:04.359Z,6.90
2018-09-30T03:30:32.686Z,6.53
2018-09-30T03:33:00.962Z,6.37
2018-09-30T03:35:29.264Z,7.17
2018-09-30T03:37:57.546Z,7.43
2018-09-30T03:40:25.844Z,7.10
2018-09-30T03:42:54.209Z,8.30
2018-09-30T03:45:26.128Z,7.47
2018-09-30T03:47:54.412Z,7.87
2018-09-30T03:50:22.700Z,7.77
2018-09-30T03:52:50.958Z,6.47
2018-09-30T03:55:19.268Z,7.87
2018-09-30T03:57:47.592Z,7.27
2018-09-30T04:00:15.868Z,7.77
2018-09-30T04:02:44.163Z,8.30
2018-09-30T04:05:12.461Z,7.90
2018-09-30T04:07:41.611Z,7.87
2018-09-30T04:10:09.960Z,7.80
2018-09-30T04:12:38.394Z,7.63
2018-09-30T04:15:06.900Z,7.43
2018-09-30T04:17:35.182Z,7.57
2018-09-30T04:20:03.666Z,7.77
2018-09-30T04:22:31.966Z,7.60
2018-09-30T04:25:00.223Z,7.37
2018-09-30T04:27:28.537Z,6.37
2018-09-30T04:29:56.795Z,6.03
2018-09-30T04:32:25.102Z,6.40
2018-09-30T04:34:53.407Z,5.60
2018-09-30T04:37:21.733Z,5.53
2018-09-30T04:39:50.006Z,5.57
2018-09-30T04:42:18.283Z,6.60
2018-09-30T04:44:46.591Z,6.53
2018-09-30T04:47:14.888Z,6.70
2018-09-30T04:49:43.273Z,7.57
2018-09-30T04:52:11.596Z,6.60
2018-09-30T04:54:39.874Z,6.63
2018-09-30T04:57:08.182Z,6.70
2018-09-30T04:59:36.491Z,6.80
2018-09-30T05:02:04.762Z,6.80
2018-09-30T05:04:33.027Z,6.70
2018-09-30T05:07:01.332Z,7.63
2018-09-30T05:09:29.622Z,6.40
2018-09-30T05:11:58.162Z,6.63
2018-09-30T05:14:26.466Z,5.60
2018-09-30T05:16:54.920Z,7.00
2018-09-30T05:19:23.214Z,6.40
2018-09-30T05:21:51.503Z,6.60
2018-09-30T05:24:19.778Z,6.50
2018-09-30T05:26:48.088Z,6.40
2018-09-30T05:29:16.378Z,5.97
2018-09-30T05:31:44.707Z,6.80
2018-09-30T05:34:13.016Z,5.77
2018-09-30T05:36:41.317Z,5.90
2018-09-30T05:39:10.692Z,5.77
2018-09-30T05:41:39.192Z,6.30
2018-09-30T05:44:08.131Z,5.57
2018-09-30T05:46:36.430Z,6.23
2018-09-30T05:49:04.891Z,5.73
2018-09-30T05:51:36.722Z,6.33
2018-09-30T05:54:05.031Z,5.53
2018-09-30T05:56:33.308Z,6.40
2018-09-30T05:59:01.609Z,5.83
2018-09-30T06:01:29.908Z,6.60
2018-09-30T06:03:58.918Z,5.77
2018-09-30T06:06:27.394Z,6.37
2018-09-30T06:08:55.735Z,5.80
2018-09-30T06:11:24.238Z,6.43
2018-09-30T06:13:53.029Z,6.73
2018-09-30T06:16:21.432Z,5.80
2018-09-30T06:18:49.753Z,5.70
2018-09-30T06:21:18.324Z,6.60
2018-09-30T06:23:46.639Z,6.07
2018-09-30T06:26:14.918Z,5.50
2018-09-30T06:28:43.281Z,5.23
2018-09-30T06:31:11.612Z,5.20
2018-09-30T06:33:39.926Z,5.63
2018-09-30T06:36:09.508Z,5.50
2018-09-30T06:38:37.838Z,5.70
2018-09-30T06:41:06.186Z,5.53
2018-09-30T06:43:34.497Z,5.17
2018-09-30T06:46:02.821Z,5.90
2018-09-30T06:48:31.141Z,5.37
2018-09-30T06:50:59.647Z,5.47
2018-09-30T06:53:28.060Z,5.03
2018-09-30T06:55:56.398Z,5.40
2018-09-30T06:58:26.502Z,5.03
2018-09-30T07:00:54.831Z,5.00
2018-09-30T07:03:23.108Z,5.00
2018-09-30T07:05:51.395Z,5.90
2018-09-30T07:08:19.679Z,5.57
2018-09-30T07:10:48.057Z,5.60
2018-09-30T07:13:16.507Z,5.03
2018-09-30T07:15:45.008Z,5.50
2018-09-30T07:18:13.293Z,6.00
2018-09-30T07:20:41.651Z,5.30
2018-09-30T07:23:09.949Z,5.17
2018-09-30T07:25:38.292Z,4.83
2018-09-30T07:28:06.839Z,5.17
2018-09-30T07:30:35.178Z,5.43
2018-09-30T07:33:03.470Z,5.30
2018-09-30T07:35:31.959Z,4.90
2018-09-30T07:38:00.461Z,4.63
2018-09-30T07:40:28.771Z,4.70
2018-09-30T07:42:57.143Z,4.50
2018-09-30T07:45:25.439Z,4.80
2018-09-30T07:47:54.100Z,4.90
2018-09-30T07:50:22.439Z,4.53
2018-09-30T07:52:50.773Z,5.27
2018-09-30T07:55:19.115Z,4.87
2018-09-30T07:57:47.450Z,4.83
2018-09-30T08:00:16.931Z,4.72
2018-09-30T08:02:45.257Z,4.87
2018-09-30T08:05:13.989Z,4.80
2018-09-30T08:07:42.358Z,4.93
2018-09-30T08:10:10.679Z,5.07
2018-09-30T08:12:39.078Z,5.07
2018-09-30T08:15:07.754Z,5.20
2018-09-30T08:17:36.130Z,5.40
2018-09-30T08:20:04.709Z,5.17
2018-09-30T08:22:33.914Z,5.50
2018-09-30T08:25:02.574Z,6.20
2018-09-30T08:27:30.889Z,5.30
2018-09-30T08:29:59.606Z,5.20
2018-09-30T08:32:27.901Z,5.33
2018-09-30T08:34:56.844Z,5.20
2018-09-30T08:37:30.420Z,5.40
2018-09-30T08:39:59.071Z,5.67
2018-09-30T08:42:27.533Z,5.40
2018-09-30T08:44:56.038Z,5.30
2018-09-30T08:47:24.457Z,5.63
2018-09-30T08:49:52.869Z,6.20
2018-09-30T08:52:21.243Z,5.70
2018-09-30T08:54:49.847Z,5.80
2018-09-30T08:57:18.215Z,5.70
2018-09-30T08:59:46.755Z,5.73
2018-09-30T09:02:15.055Z,6.30
2018-09-30T09:04:43.391Z,5.87
2018-09-30T09:07:11.796Z,5.90
2018-09-30T09:09:40.184Z,5.43
2018-09-30T09:12:08.723Z,5.70
2018-09-30T09:14:37.049Z,5.47
2018-09-30T09:17:05.921Z,5.90
2018-09-30T09:19:34.256Z,5.93
2018-09-30T09:22:02.550Z,5.50
2018-09-30T09:24:30.845Z,5.40
2018-09-30T09:26:59.380Z,5.43
2018-09-30T09:29:28.255Z,5.85
2018-09-30T09:31:57.178Z,5.90
2018-09-30T09:34:25.835Z,5.90
2018-09-30T09:36:54.668Z,5.58
2018-09-30T09:39:23.525Z,5.75
2018-09-30T09:41:52.387Z,5.70
2018-09-30T09:44:21.335Z,5.72
2018-09-30T09:46:50.242Z,5.87
2018-09-30T09:49:19.300Z,6.30
2018-09-30T09:51:48.182Z,6.25
2018-09-30T09:54:17.218Z,6.25
2018-09-30T09:56:46.188Z,5.67
2018-09-30T09:59:15.144Z,4.80
2018-09-30T10:01:47.342Z,4.55
2018-09-30T10:04:16.288Z,4.30
2018-09-30T10:06:45.224Z,4.42
2018-09-30T10:09:14.124Z,4.90
2018-09-30T10:11:42.956Z,3.75
2018-09-30T10:14:11.835Z,2.33
2018-09-30T10:16:40.700Z,2.00
2018-09-30T10:19:09.672Z,2.00
2018-09-30T10:21:38.594Z,1.92
2018-09-30T10:24:07.642Z,1.75
2018-09-30T10:26:36.490Z,1.90
2018-09-30T10:29:05.395Z,2.08
2018-09-30T10:31:34.243Z,1.95
2018-09-30T10:34:03.224Z,1.80
2018-09-30T10:36:32.439Z,2.00
2018-09-30T10:39:01.317Z,2.08
2018-09-30T10:41:30.352Z,1.80
2018-09-30T10:43:59.216Z,2.10
2018-09-30T10:46:28.131Z,1.75
2018-09-30T10:48:57.240Z,1.90
2018-09-30T10:51:26.138Z,2.20
2018-09-30T10:53:54.983Z,2.00
2018-09-30T10:56:23.868Z,2.08
2018-09-30T10:58:52.756Z,2.10
2018-09-30T11:01:21.427Z,2.10
2018-09-30T11:03:50.545Z,1.85
2018-09-30T11:06:19.491Z,2.52
2018-09-30T11:08:53.871Z,2.30
2018-09-30T11:11:22.754Z,1.80
2018-09-30T11:13:51.589Z,2.52
2018-09-30T11:16:20.469Z,2.62
2018-09-30T11:18:49.289Z,2.00
2018-09-30T11:21:18.183Z,1.70
2018-09-30T11:23:47.026Z,2.05
2018-09-30T11:26:15.890Z,2.60
2018-09-30T11:28:44.792Z,2.83
2018-09-30T11:31:13.671Z,2.50
2018-09-30T11:33:42.501Z,2.30
2018-09-30T11:36:11.375Z,2.37
2018-09-30T11:38:40.225Z,2.10
2018-09-30T11:41:09.096Z,2.55
2018-09-30T11:43:38.866Z,2.20
2018-09-30T11:46:08.043Z,2.45
2018-09-30T11:48:36.910Z,2.60
2018-09-30T11:51:06.327Z,2.90
2018-09-30T11:53:35.278Z,2.20
2018-09-30T11:56:04.173Z,2.37
2018-09-30T11:58:33.261Z,2.20
2018-09-30T12:01:02.040Z,2.40
2018-09-30T12:03:30.885Z,2.17
2018-09-30T12:05:59.753Z,2.15
2018-09-30T12:08:28.628Z,2.37
2018-09-30T12:10:57.487Z,1.90
2018-09-30T12:13:26.731Z,2.10
2018-09-30T12:15:55.631Z,2.12
2018-09-30T12:18:24.526Z,1.85
2018-09-30T12:20:53.448Z,2.25
2018-09-30T12:23:22.479Z,1.77
2018-09-30T12:25:51.398Z,1.87
2018-09-30T12:28:20.442Z,1.80
2018-09-30T12:30:49.286Z,1.60
2018-09-30T12:33:18.163Z,1.57
2018-09-30T12:35:46.994Z,1.42
2018-09-30T12:38:15.841Z,1.70
2018-09-30T12:40:44.811Z,1.80
2018-09-30T12:43:13.692Z,2.10
2018-09-30T12:45:43.757Z,2.20
2018-09-30T12:48:12.673Z,1.72
2018-09-30T12:50:41.620Z,1.60
2018-09-30T12:53:10.567Z,1.70
2018-09-30T12:55:39.476Z,1.57
2018-09-30T12:58:08.518Z,1.45
2018-09-30T13:00:37.213Z,1.80
2018-09-30T13:03:06.074Z,1.77
2018-09-30T13:05:34.969Z,2.00
2018-09-30T13:08:04.816Z,1.75
2018-09-30T13:10:33.740Z,1.80
2018-09-30T13:13:02.612Z,1.35
2018-09-30T13:15:31.626Z,1.50
2018-09-30T13:18:00.623Z,2.08
2018-09-30T13:20:29.531Z,1.65
2018-09-30T13:22:58.707Z,1.60
2018-09-30T13:25:27.605Z,1.55
2018-09-30T13:27:56.841Z,1.77
2018-09-30T13:30:25.876Z,1.70
2018-09-30T13:32:54.780Z,1.42
2018-09-30T13:35:23.688Z,1.65
2018-09-30T13:37:52.859Z,1.32
2018-09-30T13:40:21.830Z,1.95
2018-09-30T13:42:50.914Z,1.25
2018-09-30T13:45:19.862Z,1.60
2018-09-30T13:47:48.730Z,1.70
2018-09-30T13:50:17.610Z,1.40
2018-09-30T13:52:53.689Z,1.40
2018-09-30T13:55:22.623Z,1.47
2018-09-30T13:57:51.473Z,1.20
2018-09-30T14:00:19.790Z,1.30
2018-09-30T14:02:48.680Z,1.10
2018-09-30T14:05:17.585Z,1.50
2018-09-30T14:07:46.556Z,1.62
2018-09-30T14:10:15.428Z,2.72
2018-09-30T14:12:44.556Z,1.90
2018-09-30T14:15:13.640Z,1.75
2018-09-30T14:17:42.587Z,1.47
2018-09-30T14:20:11.454Z,1.42
2018-09-30T14:22:40.369Z,1.52
2018-09-30T14:25:09.252Z,1.50
2018-09-30T14:27:38.110Z,1.50
2018-09-30T14:30:07.010Z,1.77
2018-09-30T14:32:35.949Z,1.42
2018-09-30T14:35:04.976Z,1.67
2018-09-30T14:37:34.657Z,1.60
2018-09-30T14:40:03.519Z,1.60
2018-09-30T14:42:32.387Z,1.42
2018-09-30T14:45:01.237Z,1.42
2018-09-30T14:47:30.390Z,1.60
2018-09-30T14:49:59.326Z,1.77
2018-09-30T14:52:28.336Z,1.45
2018-09-30T14:54:57.225Z,1.42
2018-09-30T14:57:26.150Z,1.70
2018-09-30T14:59:55.088Z,2.00
2018-09-30T15:02:23.854Z,1.60
2018-09-30T15:04:52.704Z,1.30
2018-09-30T15:07:21.572Z,1.20
2018-09-30T15:09:50.922Z,1.20
2018-09-30T15:12:19.811Z,1.15
2018-09-30T15:14:48.713Z,1.25
2018-09-30T15:17:17.641Z,1.42
2018-09-30T15:19:46.678Z,1.57
2018-09-30T15:22:15.543Z,1.30
2018-09-30T15:24:44.423Z,1.27
2018-09-30T15:27:13.294Z,1.70
2018-09-30T15:29:42.169Z,2.15
2018-09-30T15:32:11.038Z,1.20
2018-09-30T15:34:39.929Z,1.32
2018-09-30T15:37:08.788Z,1.50
2018-09-30T15:39:37.681Z,1.50
2018-09-30T15:42:06.652Z,1.87
2018-09-30T15:44:35.523Z,1.82
2018-09-30T15:47:04.414Z,1.50
2018-09-30T15:49:33.305Z,1.30
2018-09-30T15:52:02.180Z,1.47
2018-09-30T15:54:31.044Z,1.60
2018-09-30T15:56:59.924Z,1.50
2018-09-30T15:59:28.912Z,1.40
2018-09-30T16:01:57.905Z,1.23
2018-09-30T16:04:28.134Z,1.10
2018-09-30T16:06:56.603Z,2.17
2018-09-30T16:09:25.952Z,1.30
2018-09-30T16:11:54.906Z,1.67
2018-09-30T16:14:23.831Z,1.45
2018-09-30T16:16:54.564Z,1.50
2018-09-30T16:19:23.471Z,1.45
2018-09-30T16:21:52.362Z,1.10
2018-09-30T16:24:21.281Z,1.67
2018-09-30T16:26:50.141Z,1.37
2018-09-30T16:29:19.135Z,1.98
2018-09-30T16:31:48.036Z,1.67
2018-09-30T16:34:16.896Z,1.40
2018-09-30T16:36:45.797Z,1.40
2018-09-30T16:39:14.831Z,1.50
2018-09-30T16:41:43.930Z,1.70
2018-09-30T16:44:12.243Z,1.65
2018-09-30T16:46:40.584Z,1.80
2018-09-30T16:49:09.437Z,2.20
2018-09-30T16:51:38.343Z,1.50
2018-09-30T16:54:07.439Z,1.85
2018-09-30T16:56:36.037Z,1.90
2018-09-30T16:59:04.920Z,1.90
2018-09-30T17:01:39.551Z,2.20
2018-09-30T17:04:07.890Z,1.57
2018-09-30T17:06:36.219Z,1.70
2018-09-30T17:09:06.548Z,1.77
2018-09-30T17:14:10.507Z,1.62
2018-09-30T17:16:39.035Z,1.72
2018-09-30T17:19:09.052Z,2.43
2018-09-30T17:21:37.377Z,1.93
2018-09-30T17:24:05.736Z,1.97
2018-09-30T17:26:34.064Z,1.67
2018-09-30T17:29:02.457Z,1.80
2018-09-30T17:31:30.976Z,1.47
2018-09-30T17:33:59.306Z,1.60
2018-09-30T17:36:27.608Z,1.70
2018-09-30T17:38:56.305Z,1.77
2018-09-30T17:41:24.707Z,1.83
2018-09-30T17:43:53.063Z,1.40
2018-09-30T17:46:21.694Z,1.20
2018-09-30T17:48:50.007Z,1.67
2018-09-30T17:51:18.482Z,1.17
2018-09-30T17:53:47.179Z,1.43
2018-09-30T17:56:15.905Z,1.10
2018-09-30T17:58:44.337Z,1.50
2018-09-30T18:01:12.980Z,1.60
2018-09-30T18:03:41.480Z,1.50
2018-09-30T18:06:09.933Z,1.67
2018-09-30T18:08:38.353Z,1.73
2018-09-30T18:11:07.291Z,1.13
2018-09-30T18:13:35.898Z,1.37
2018-09-30T18:16:04.753Z,1.33
2018-09-30T18:18:33.328Z,1.80
2018-09-30T18:21:02.001Z,1.70
2018-09-30T18:23:30.759Z,1.47
2018-09-30T18:25:59.410Z,1.80
2018-09-30T18:28:27.995Z,1.67
2018-09-30T18:30:56.531Z,1.73
2018-09-30T18:33:25.164Z,1.90
2018-09-30T18:35:53.635Z,1.33
2018-09-30T18:38:22.076Z,1.60
2018-09-30T18:40:50.566Z,1.60
2018-09-30T18:43:20.050Z,1.23
2018-09-30T18:45:48.663Z,1.57
2018-09-30T18:48:18.177Z,1.93
2018-09-30T18:50:48.024Z,1.90
2018-09-30T18:53:17.968Z,1.90
2018-09-30T18:55:47.335Z,1.47
2018-09-30T18:58:17.162Z,1.70
2018-09-30T19:00:46.475Z,1.77
2018-09-30T19:03:15.685Z,1.90
2018-09-30T19:05:45.202Z,1.33
2018-09-30T19:08:14.263Z,1.40
2018-09-30T19:10:43.325Z,1.50
2018-09-30T19:13:12.029Z,1.93
2018-09-30T19:15:40.874Z,1.70
2018-09-30T19:18:09.504Z,1.53
2018-09-30T19:20:37.896Z,2.07
2018-09-30T19:23:06.482Z,1.50
2018-09-30T19:25:35.302Z,1.73
2018-09-30T19:28:03.715Z,1.60
2018-09-30T19:30:32.461Z,1.30
2018-09-30T19:33:00.823Z,1.87
2018-09-30T19:35:29.322Z,1.63
2018-09-30T19:37:58.619Z,1.70
2018-09-30T19:40:27.543Z,1.90
2018-09-30T19:42:56.199Z,1.70
2018-09-30T19:45:24.898Z,1.70
2018-09-30T19:47:53.655Z,1.97
2018-09-30T19:50:22.314Z,1.70
2018-09-30T19:52:51.297Z,1.63
2018-09-30T19:55:20.321Z,1.70
2018-09-30T19:57:49.270Z,1.80
2018-09-30T20:00:17.903Z,1.40
2018-09-30T20:02:46.554Z,1.40
2018-09-30T20:05:15.162Z,1.73
2018-09-30T20:07:43.840Z,1.30
2018-09-30T20:10:12.559Z,1.47
2018-09-30T20:12:41.240Z,1.30
2018-09-30T20:15:10.063Z,1.63
2018-09-30T20:19:08.447Z,1.30
2018-09-30T20:21:37.163Z,1.50
2018-09-30T20:24:06.000Z,1.27
2018-09-30T20:26:34.931Z,1.70
2018-09-30T20:29:03.586Z,1.47
2018-09-30T20:31:33.527Z,1.40
2018-09-30T20:34:02.450Z,1.73
2018-09-30T20:36:31.055Z,1.47
2018-09-30T20:38:59.409Z,1.63
2018-09-30T20:41:27.756Z,1.50
2018-09-30T20:43:56.327Z,2.10
2018-09-30T20:46:24.759Z,1.53
2018-09-30T20:48:53.448Z,1.90
2018-09-30T20:51:22.133Z,1.20
2018-09-30T20:53:50.769Z,1.67
2018-09-30T20:56:19.445Z,1.50
2018-09-30T20:58:48.288Z,1.30
2018-09-30T21:01:17.345Z,1.47
2018-09-30T21:03:45.959Z,1.70
2018-09-30T21:06:30.049Z,1.40
2018-09-30T21:08:59.018Z,1.50
2018-09-30T21:11:27.543Z,1.20
2018-09-30T21:13:55.984Z,1.40
2018-09-30T21:16:24.687Z,1.47
2018-09-30T21:18:53.278Z,1.77
2018-09-30T21:21:21.900Z,1.50
2018-09-30T21:23:50.322Z,0.90
2018-09-30T21:26:19.040Z,1.27
2018-09-30T21:28:47.621Z,1.17
2018-09-30T21:31:15.980Z,0.97
2018-09-30T21:33:44.764Z,1.30
2018-09-30T21:36:13.252Z,1.70
2018-09-30T21:38:41.663Z,1.10
2018-09-30T21:41:09.977Z,0.87
2018-09-30T21:43:38.326Z,1.30
2018-09-30T21:46:06.670Z,1.20
2018-09-30T21:48:35.075Z,1.20
2018-09-30T21:51:04.315Z,1.30
2018-09-30T21:53:32.677Z,1.37
2018-09-30T21:56:01.011Z,1.00
2018-09-30T21:58:29.773Z,0.90
2018-09-30T22:01:00.192Z,1.23
2018-09-30T22:03:28.916Z,1.47
2018-09-30T22:05:57.478Z,0.90
2018-09-30T22:08:25.834Z,1.40
2018-09-30T22:10:54.198Z,1.63
2018-09-30T22:13:22.541Z,1.27
2018-09-30T22:15:50.889Z,1.37
2018-09-30T22:18:19.183Z,0.80
2018-09-30T22:20:47.622Z,1.43
2018-09-30T22:23:16.085Z,1.57
2018-09-30T22:25:44.450Z,1.10
2018-09-30T22:28:12.802Z,0.83
2018-09-30T22:30:41.293Z,0.93
2018-09-30T22:33:09.693Z,0.93
2018-09-30T22:35:38.071Z,1.27
2018-09-30T22:38:06.733Z,1.07
2018-09-30T22:40:35.075Z,1.37
2018-09-30T22:43:03.415Z,1.20
2018-09-30T22:45:31.782Z,1.10
2018-09-30T22:48:00.131Z,1.23
2018-09-30T22:50:28.430Z,1.50
2018-09-30T22:52:57.122Z,0.90
2018-09-30T22:55:25.441Z,1.10
2018-09-30T22:57:54.143Z,0.90
2018-09-30T23:00:22.485Z,1.10
2018-09-30T23:02:50.781Z,0.93
2018-09-30T23:05:19.126Z,1.47
2018-09-30T23:07:47.494Z,1.00
2018-09-30T23:10:16.183Z,1.00
2018-09-30T23:12:44.522Z,1.10
2018-09-30T23:15:12.856Z,1.03
2018-09-30T23:17:41.188Z,1.00
2018-09-30T23:20:16.269Z,0.90
2018-09-30T23:22:45.135Z,0.80
2018-09-30T23:25:13.522Z,1.30
2018-09-30T23:27:42.059Z,0.97
2018-09-30T23:30:10.348Z,0.97
2018-09-30T23:32:39.068Z,0.90
2018-09-30T23:35:07.437Z,1.17
2018-09-30T23:37:35.817Z,0.70
2018-09-30T23:40:04.478Z,0.97
2018-09-30T23:42:32.778Z,0.83
2018-09-30T23:45:01.108Z,0.90
2018-09-30T23:47:29.452Z,1.13
2018-09-30T23:49:57.808Z,1.13
2018-09-30T23:52:26.082Z,0.70
2018-09-30T23:54:54.387Z,1.00
2018-09-30T23:57:22.686Z,0.90
2018-09-30T23:59:50.987Z,0.80
